Time;durP1;ratioP1;P1;durP2;ratioP2;P2;SDS_P1;SDS_P2;PMS_P1;PMS_P2;Temp;Humidity;BMP_temperature;BMP_pressure;BME280_temperature;BME280_humidity;BME280_pressure;Samples;Min_cycle;Max_cycle;Signal;HPM_P1;HPM_P2
2022/04/03 00:02:18;;;;;;;1.47;1.37;;;3.60;99.90;;;;;;5045955;28;20567;-72
2022/04/03 00:04:45;;;;;;;1.30;1.20;;;3.60;99.90;;;;;;5039055;28;20459;-74
2022/04/03 00:07:11;;;;;;;1.60;1.43;;;3.60;99.90;;;;;;5019944;28;20455;-73
2022/04/03 00:09:38;;;;;;;3.00;2.80;;;3.60;99.90;;;;;;5042289;28;21422;-74
2022/04/03 00:12:05;;;;;;;1.60;1.43;;;3.50;99.90;;;;;;5045634;28;20554;-73
2022/04/03 00:14:33;;;;;;;3.77;1.63;;;3.40;99.90;;;;;;5044873;28;20429;-70
2022/04/03 00:17:00;;;;;;;2.03;1.70;;;3.40;99.90;;;;;;5047283;28;20498;-73
2022/04/03 00:19:27;;;;;;;2.53;2.17;;;3.40;99.90;;;;;;5045902;28;20484;-73
2022/04/03 00:21:54;;;;;;;1.47;1.17;;;3.40;99.90;;;;;;5047538;28;20624;-73
2022/04/03 00:24:21;;;;;;;1.90;1.50;;;3.30;99.90;;;;;;5032410;28;20920;-72
2022/04/03 00:26:47;;;;;;;1.37;1.27;;;3.40;99.90;;;;;;5032195;28;20729;-72
2022/04/03 00:29:14;;;;;;;1.97;1.30;;;3.40;99.90;;;;;;5050466;28;20434;-71
2022/04/03 00:31:43;;;;;;;2.77;1.70;;;3.40;99.90;;;;;;5045871;28;20429;-71
2022/04/03 00:34:09;;;;;;;2.17;1.70;;;3.40;99.90;;;;;;5049943;28;20544;-72
2022/04/03 00:36:36;;;;;;;1.57;1.47;;;3.50;99.90;;;;;;5040353;28;21218;-71
2022/04/03 00:39:03;;;;;;;5.87;2.40;;;3.50;99.90;;;;;;5043805;28;20558;-71
2022/04/03 00:41:30;;;;;;;1.10;0.90;;;3.50;99.90;;;;;;5048761;28;20891;-71
2022/04/03 00:43:58;;;;;;;2.90;2.43;;;3.40;99.90;;;;;;5049345;28;20479;-71
2022/04/03 00:46:28;;;;;;;3.63;1.93;;;3.30;99.90;;;;;;5051816;28;20515;-71
2022/04/03 00:48:59;;;;;;;1.30;1.20;;;3.30;99.90;;;;;;5045634;28;20430;-70
2022/04/03 00:51:26;;;;;;;0.93;0.77;;;3.30;99.90;;;;;;5040852;28;20520;-71
2022/04/03 00:53:53;;;;;;;2.23;1.60;;;3.40;99.90;;;;;;5043799;28;20465;-71
2022/04/03 00:56:20;;;;;;;2.80;1.30;;;3.50;99.90;;;;;;5039568;28;20486;-72
2022/04/03 00:58:48;;;;;;;4.27;2.70;;;3.40;99.90;;;;;;5040462;28;20444;-73
2022/04/03 01:01:15;;;;;;;2.60;2.07;;;3.50;99.90;;;;;;5038418;28;21204;-73
2022/04/03 01:03:42;;;;;;;2.00;1.80;;;3.30;99.90;;;;;;5044318;28;20561;-72
2022/04/03 01:06:10;;;;;;;2.90;2.13;;;3.30;99.90;;;;;;5038851;28;20459;-72
2022/04/03 01:08:37;;;;;;;2.90;2.40;;;3.10;99.90;;;;;;5045914;28;20525;-73
2022/04/03 01:11:04;;;;;;;1.90;1.20;;;3.30;99.90;;;;;;5037342;28;20498;-73
2022/04/03 01:13:31;;;;;;;1.57;1.47;;;3.10;99.90;;;;;;5044982;28;20871;-73
2022/04/03 01:15:59;;;;;;;2.13;1.23;;;3.00;99.90;;;;;;5048758;28;20485;-73
2022/04/03 01:18:26;;;;;;;10.80;2.17;;;3.00;99.90;;;;;;5043556;28;20551;-72
2022/04/03 01:20:53;;;;;;;3.83;1.63;;;3.10;99.90;;;;;;5042515;28;21481;-72
2022/04/03 01:23:22;;;;;;;2.50;2.30;;;3.00;99.90;;;;;;5037854;28;20449;-73
2022/04/03 01:25:50;;;;;;;1.27;1.03;;;3.10;99.90;;;;;;5048310;28;20898;-72
2022/04/03 01:28:16;;;;;;;2.63;1.87;;;3.20;99.90;;;;;;5037818;28;20551;-73
2022/04/03 01:30:43;;;;;;;3.40;2.20;;;3.20;99.90;;;;;;5040829;28;20545;-73
2022/04/03 01:33:10;;;;;;;1.60;1.13;;;3.20;99.90;;;;;;5036808;28;20474;-72
2022/04/03 01:35:37;;;;;;;1.70;1.50;;;3.30;99.90;;;;;;5039491;28;20793;-72
2022/04/03 01:38:03;;;;;;;4.53;2.23;;;3.20;99.90;;;;;;5041277;28;20800;-74
2022/04/03 01:40:34;;;;;;;3.97;1.93;;;3.20;99.90;;;;;;5049465;28;20434;-72
2022/04/03 01:43:02;;;;;;;1.80;1.60;;;3.20;99.90;;;;;;5042831;28;20568;-74
2022/04/03 01:45:28;;;;;;;3.50;1.63;;;3.20;99.90;;;;;;5051280;28;20475;-72
2022/04/03 01:47:55;;;;;;;4.00;1.67;;;3.20;99.90;;;;;;5053076;28;20670;-72
2022/04/03 01:50:22;;;;;;;2.43;1.77;;;3.20;99.90;;;;;;5050845;28;20472;-72
2022/04/03 01:52:48;;;;;;;3.43;2.20;;;3.20;99.90;;;;;;5048310;28;20523;-72
2022/04/03 01:55:15;;;;;;;3.60;1.70;;;3.20;99.90;;;;;;5041050;28;20969;-73
2022/04/03 01:57:42;;;;;;;2.20;1.40;;;3.10;99.90;;;;;;5047882;28;20452;-73
2022/04/03 02:00:11;;;;;;;2.20;1.70;;;2.90;99.90;;;;;;5040191;28;20917;-73
2022/04/03 02:02:38;;;;;;;2.23;1.63;;;2.70;99.90;;;;;;5045039;28;20449;-73
2022/04/03 02:05:06;;;;;;;2.30;1.83;;;2.80;99.90;;;;;;5052480;28;20462;-73
2022/04/03 02:07:33;;;;;;;2.70;2.50;;;2.80;99.90;;;;;;5046191;28;20844;-73
2022/04/03 02:10:00;;;;;;;6.90;4.13;;;2.90;99.90;;;;;;5055993;28;20469;-74
2022/04/03 02:12:27;;;;;;;2.00;1.90;;;2.90;99.90;;;;;;5048719;28;20460;-73
2022/04/03 02:14:54;;;;;;;10.13;1.53;;;2.80;99.90;;;;;;5047350;28;20442;-73
2022/04/03 02:17:22;;;;;;;2.23;1.60;;;2.90;99.90;;;;;;5047311;28;20493;-73
2022/04/03 02:19:49;;;;;;;2.90;2.00;;;2.90;99.90;;;;;;5043818;28;20503;-73
2022/04/03 02:22:16;;;;;;;4.23;1.40;;;3.00;99.90;;;;;;5047870;28;30064;-73
2022/04/03 02:24:42;;;;;;;3.00;2.00;;;3.00;99.90;;;;;;5046534;28;20437;-71
2022/04/03 02:27:09;;;;;;;3.57;2.60;;;3.10;99.90;;;;;;5042631;28;20454;-72
2022/04/03 02:29:36;;;;;;;7.20;5.60;;;2.90;99.90;;;;;;5045661;28;20470;-72
2022/04/03 02:32:03;;;;;;;4.03;2.67;;;2.60;99.90;;;;;;5044123;28;20441;-72
2022/04/03 02:34:31;;;;;;;1.63;1.53;;;2.70;99.90;;;;;;5046609;28;20465;-72
2022/04/03 02:36:58;;;;;;;5.10;3.03;;;2.70;99.90;;;;;;5044379;28;20489;-73
2022/04/03 02:39:24;;;;;;;2.77;2.57;;;2.50;99.90;;;;;;5042420;28;20459;-72
2022/04/03 02:41:51;;;;;;;2.80;2.33;;;2.30;99.90;;;;;;5044048;28;20427;-72
2022/04/03 02:44:18;;;;;;;2.40;1.80;;;2.50;99.90;;;;;;5047852;28;20954;-72
2022/04/03 02:46:45;;;;;;;5.80;2.77;;;2.30;99.90;;;;;;5047423;28;21375;-72
2022/04/03 02:49:12;;;;;;;3.80;1.90;;;2.20;99.90;;;;;;5047899;28;20459;-72
2022/04/03 02:51:40;;;;;;;3.70;1.50;;;2.10;99.90;;;;;;5049854;28;20495;-73
2022/04/03 02:54:06;;;;;;;1.80;1.70;;;2.00;99.90;;;;;;5042728;28;20463;-73
2022/04/03 02:56:33;;;;;;;2.50;1.50;;;2.00;99.90;;;;;;5043798;28;20469;-73
2022/04/03 02:59:00;;;;;;;1.90;1.57;;;2.10;99.90;;;;;;5036956;28;20455;-70
2022/04/03 03:01:26;;;;;;;2.70;1.47;;;2.20;99.90;;;;;;5027979;28;20479;-71
2022/04/03 03:07:16;;;;;;;2.33;2.03;;;2.10;99.90;;;;;;5048607;28;21025;-71
2022/04/03 03:09:43;;;;;;;2.40;2.20;;;2.20;99.90;;;;;;5043194;28;20822;-70
2022/04/03 03:12:10;;;;;;;8.43;2.13;;;1.90;99.90;;;;;;5039299;28;20476;-72
2022/04/03 03:14:37;;;;;;;1.30;1.20;;;1.80;99.90;;;;;;5040445;28;27150;-70
2022/04/03 03:17:04;;;;;;;3.20;1.50;;;1.70;99.90;;;;;;5041970;28;20455;-71
2022/04/03 03:19:31;;;;;;;2.70;1.50;;;2.00;99.90;;;;;;5047061;28;20441;-70
2022/04/03 03:21:58;;;;;;;2.17;1.70;;;2.20;99.90;;;;;;5046270;28;20434;-71
2022/04/03 03:24:26;;;;;;;4.30;2.40;;;2.30;99.90;;;;;;5048828;28;20921;-71
2022/04/03 03:26:53;;;;;;;4.50;2.00;;;2.40;99.90;;;;;;5045788;28;20437;-71
2022/04/03 03:29:19;;;;;;;3.03;1.70;;;2.40;99.90;;;;;;5035691;28;20782;-72
2022/04/03 03:31:46;;;;;;;1.43;1.33;;;2.40;99.90;;;;;;5046825;28;20441;-71
2022/04/03 03:34:13;;;;;;;2.43;1.33;;;2.50;99.90;;;;;;5046376;28;21348;-70
2022/04/03 03:36:39;;;;;;;3.00;2.60;;;2.40;99.90;;;;;;5042362;28;20470;-70
2022/04/03 03:39:06;;;;;;;3.37;1.97;;;2.30;99.90;;;;;;5044923;28;20485;-71
2022/04/03 03:41:34;;;;;;;3.00;2.33;;;2.10;99.90;;;;;;5043044;28;21425;-71
2022/04/03 03:44:06;;;;;;;2.23;1.37;;;2.20;99.90;;;;;;5044827;28;20461;-71
2022/04/03 03:46:33;;;;;;;2.90;2.63;;;2.30;99.90;;;;;;5049128;28;20440;-69
2022/04/03 03:49:00;;;;;;;1.70;1.60;;;2.30;99.90;;;;;;5029888;28;20572;-71
2022/04/03 03:51:27;;;;;;;4.67;1.80;;;2.20;99.90;;;;;;5050383;28;20437;-70
2022/04/03 03:53:54;;;;;;;7.03;1.83;;;2.10;99.90;;;;;;5044498;28;20521;-71
2022/04/03 03:56:21;;;;;;;3.00;2.50;;;1.90;99.90;;;;;;5043264;28;20445;-71
2022/04/03 03:58:49;;;;;;;5.73;2.03;;;2.00;99.90;;;;;;5043098;28;20477;-71
2022/04/03 04:01:16;;;;;;;2.77;2.00;;;1.90;99.90;;;;;;5040385;28;20462;-71
2022/04/03 04:03:42;;;;;;;3.13;1.90;;;1.90;99.90;;;;;;5044342;28;20491;-73
2022/04/03 04:06:12;;;;;;;1.73;1.60;;;1.80;99.90;;;;;;5034825;28;20929;-71
2022/04/03 04:08:39;;;;;;;1.87;1.67;;;1.90;99.90;;;;;;5038852;28;20809;-71
2022/04/03 04:11:06;;;;;;;4.00;3.20;;;1.80;99.90;;;;;;5044630;28;20459;-72
2022/04/03 04:13:33;;;;;;;5.60;2.20;;;1.90;99.90;;;;;;5039063;28;20982;-72
2022/04/03 04:16:01;;;;;;;2.13;1.93;;;1.90;99.90;;;;;;5040768;28;20433;-71
2022/04/03 04:18:28;;;;;;;2.90;2.33;;;1.80;99.90;;;;;;5044104;28;20815;-71
2022/04/03 04:20:56;;;;;;;9.13;3.47;;;1.70;99.90;;;;;;5043551;28;20441;-71
2022/04/03 04:23:22;;;;;;;2.90;2.20;;;1.70;99.90;;;;;;5046474;28;21015;-73
2022/04/03 04:25:49;;;;;;;1.87;1.60;;;1.70;99.90;;;;;;5045479;28;20466;-71
2022/04/03 04:28:16;;;;;;;3.93;2.40;;;1.60;99.90;;;;;;5038440;28;20969;-72
2022/04/03 04:30:42;;;;;;;3.23;2.03;;;1.50;99.90;;;;;;5046453;28;20983;-71
2022/04/03 04:33:10;;;;;;;3.93;2.03;;;1.50;99.90;;;;;;5045415;28;20590;-70
2022/04/03 04:35:37;;;;;;;4.23;2.57;;;1.70;99.90;;;;;;5044403;28;20477;-70
2022/04/03 04:38:04;;;;;;;2.40;2.20;;;1.70;99.90;;;;;;5043147;28;20455;-71
2022/04/03 04:40:31;;;;;;;4.40;4.00;;;1.60;99.90;;;;;;5045987;28;20456;-70
2022/04/03 04:42:58;;;;;;;4.30;4.00;;;1.40;99.90;;;;;;5048615;28;20565;-71
2022/04/03 04:45:25;;;;;;;3.33;2.00;;;1.10;99.90;;;;;;5043833;28;20454;-70
2022/04/03 04:47:59;;;;;;;4.20;3.17;;;0.70;99.90;;;;;;5037664;28;20429;-70
2022/04/03 04:50:27;;;;;;;3.63;2.33;;;0.50;99.90;;;;;;5047907;28;21612;-71
2022/04/03 04:55:21;;;;;;;2.23;2.03;;;0.70;99.90;;;;;;5059449;22;20522;-71
2022/04/03 04:57:51;;;;;;;3.80;2.20;;;0.80;99.90;;;;;;5057435;28;20460;-72
2022/04/03 05:00:20;;;;;;;4.13;2.00;;;0.80;99.90;;;;;;5049163;28;20438;-72
2022/04/03 05:02:47;;;;;;;2.90;2.17;;;0.90;99.90;;;;;;5049595;28;20461;-71
2022/04/03 05:05:14;;;;;;;1.63;1.43;;;1.00;99.90;;;;;;5041045;28;20458;-72
2022/04/03 05:07:43;;;;;;;4.67;2.33;;;1.10;99.90;;;;;;5054441;28;20548;-72
2022/04/03 05:10:12;;;;;;;4.90;3.50;;;1.00;99.90;;;;;;5053141;28;20982;-71
2022/04/03 05:12:39;;;;;;;1.30;1.20;;;1.00;99.90;;;;;;5058736;28;20516;-72
2022/04/03 05:15:08;;;;;;;2.40;1.97;;;1.10;99.90;;;;;;5055330;28;20486;-71
2022/04/03 05:17:34;;;;;;;2.47;1.90;;;1.00;99.90;;;;;;5057738;28;20461;-72
2022/04/03 05:20:01;;;;;;;4.20;2.57;;;1.00;99.90;;;;;;5060466;28;20788;-71
2022/04/03 05:22:28;;;;;;;2.33;2.13;;;1.10;99.90;;;;;;5062091;28;20467;-71
2022/04/03 05:24:56;;;;;;;3.10;2.80;;;1.20;99.90;;;;;;5058796;28;20457;-72
2022/04/03 05:27:24;;;;;;;20.63;3.33;;;1.20;99.90;;;;;;5061009;28;20428;-73
2022/04/03 05:29:50;;;;;;;1.60;1.40;;;1.30;99.90;;;;;;5054757;28;20442;-72
2022/04/03 05:32:26;;;;;;;3.73;2.17;;;1.30;99.90;;;;;;5055259;28;20448;-72
2022/04/03 05:34:53;;;;;;;2.43;2.23;;;1.30;99.90;;;;;;5057312;28;20466;-72
2022/04/03 05:37:20;;;;;;;3.00;2.20;;;1.30;99.90;;;;;;5060065;28;20462;-72
2022/04/03 05:39:49;;;;;;;5.07;2.20;;;1.30;99.90;;;;;;5040277;28;20783;-71
2022/04/03 05:42:17;;;;;;;7.30;4.00;;;1.40;99.90;;;;;;5054072;28;20462;-72
2022/04/03 05:44:44;;;;;;;2.53;2.33;;;1.30;99.90;;;;;;5055749;28;20490;-71
2022/04/03 05:47:11;;;;;;;2.90;2.20;;;1.30;99.90;;;;;;5051144;28;20471;-70
2022/04/03 05:49:38;;;;;;;3.57;1.90;;;1.50;99.90;;;;;;5056272;28;20832;-71
2022/04/03 05:52:05;;;;;;;4.37;2.80;;;1.60;99.90;;;;;;5060341;28;20447;-71
2022/04/03 05:54:32;;;;;;;8.27;2.93;;;1.70;99.90;;;;;;5055854;28;20491;-71
2022/04/03 05:56:59;;;;;;;12.90;5.60;;;1.70;99.90;;;;;;5055965;28;21037;-71
2022/04/03 05:59:27;;;;;;;6.40;3.70;;;2.00;99.90;;;;;;5050929;28;20453;-71
2022/04/03 06:01:53;;;;;;;8.63;4.20;;;2.10;99.90;;;;;;5056481;28;20463;-71
2022/04/03 06:04:20;;;;;;;6.67;5.60;;;2.80;99.90;;;;;;5059604;28;20453;-71
2022/04/03 06:06:47;;;;;;;6.80;5.63;;;3.10;99.90;;;;;;5059264;28;20560;-72
2022/04/03 06:09:14;;;;;;;4.77;4.00;;;3.40;99.90;;;;;;5054750;28;20459;-72
2022/04/03 06:11:40;;;;;;;6.57;4.13;;;3.70;99.90;;;;;;5052218;28;20444;-72
2022/04/03 06:14:07;;;;;;;4.13;3.73;;;4.10;99.90;;;;;;5060033;28;20462;-74
2022/04/03 06:16:35;;;;;;;6.40;4.03;;;4.60;99.90;;;;;;5048833;28;20826;-73
2022/04/03 06:19:05;;;;;;;4.63;2.80;;;4.80;99.90;;;;;;5058091;28;20465;-70
2022/04/03 06:21:31;;;;;;;9.80;3.90;;;4.50;99.90;;;;;;5052876;28;20434;-73
2022/04/03 06:23:58;;;;;;;3.13;2.83;;;5.10;99.90;;;;;;5049721;28;20479;-72
2022/04/03 06:26:25;;;;;;;4.17;2.50;;;5.40;99.90;;;;;;5048227;28;20438;-70
2022/04/03 06:28:51;;;;;;;3.37;2.50;;;5.50;99.90;;;;;;5055201;28;21004;-72
2022/04/03 06:31:18;;;;;;;6.73;2.70;;;5.80;99.90;;;;;;5058493;28;20993;-72
2022/04/03 06:33:47;;;;;;;4.50;2.97;;;6.20;99.90;;;;;;5055240;28;20474;-72
2022/04/03 06:36:14;;;;;;;5.70;3.70;;;7.00;99.90;;;;;;5048122;28;20462;-71
2022/04/03 06:38:40;;;;;;;4.23;3.80;;;7.90;99.90;;;;;;5043673;28;20531;-72
2022/04/03 06:41:08;;;;;;;3.60;2.77;;;7.50;99.90;;;;;;5039944;28;20478;-71
2022/04/03 06:43:36;;;;;;;5.13;2.37;;;7.70;99.90;;;;;;5049362;28;20483;-72
2022/04/03 06:46:02;;;;;;;5.03;3.33;;;7.90;99.90;;;;;;5052164;28;20524;-72
2022/04/03 06:48:30;;;;;;;3.57;3.27;;;7.90;99.90;;;;;;5047704;28;20459;-73
2022/04/03 06:50:58;;;;;;;3.77;2.87;;;7.80;99.90;;;;;;5045417;28;20467;-71
2022/04/03 06:53:25;;;;;;;2.87;2.23;;;8.20;99.90;;;;;;5047909;28;20493;-74
2022/04/03 06:55:52;;;;;;;5.93;3.93;;;8.60;99.90;;;;;;5045478;28;20455;-71
2022/04/03 06:58:18;;;;;;;5.70;2.40;;;8.90;99.90;;;;;;5040896;28;20475;-71
2022/04/03 07:00:45;;;;;;;10.33;4.13;;;9.30;99.70;;;;;;5042852;28;20467;-72
2022/04/03 07:03:12;;;;;;;21.40;5.17;;;9.40;97.20;;;;;;5053065;28;20460;-71
2022/04/03 07:05:38;;;;;;;5.70;3.50;;;9.00;97.80;;;;;;5043817;28;21919;-72
2022/04/03 07:08:07;;;;;;;3.33;2.73;;;8.50;97.80;;;;;;5043588;28;20643;-71
2022/04/03 07:10:34;;;;;;;3.73;2.23;;;8.70;98.50;;;;;;5043520;28;20618;-72
2022/04/03 07:13:02;;;;;;;4.23;3.20;;;9.30;97.60;;;;;;5050679;28;20509;-71
2022/04/03 07:15:29;;;;;;;5.10;3.23;;;9.90;95.40;;;;;;5048072;28;20501;-72
2022/04/03 07:17:55;;;;;;;4.27;2.30;;;10.50;93.50;;;;;;5050662;28;20459;-73
2022/04/03 07:20:22;;;;;;;4.30;2.57;;;10.70;92.00;;;;;;5049336;28;20906;-74
2022/04/03 07:22:49;;;;;;;3.20;2.47;;;10.90;91.10;;;;;;5052948;28;20560;-71
2022/04/03 07:25:17;;;;;;;3.83;2.17;;;10.80;90.70;;;;;;5043975;28;20485;-74
2022/04/03 07:27:44;;;;;;;3.33;2.03;;;10.30;90.10;;;;;;5041599;28;20462;-72
2022/04/03 07:30:12;;;;;;;2.17;1.63;;;10.60;91.10;;;;;;5044863;28;20515;-73
2022/04/03 07:32:40;;;;;;;2.47;1.97;;;10.80;86.00;;;;;;5041326;28;20453;-71
2022/04/03 07:35:07;;;;;;;2.43;1.73;;;10.60;84.60;;;;;;5039718;28;20611;-72
2022/04/03 07:37:34;;;;;;;3.30;2.00;;;9.90;87.10;;;;;;5042777;28;20648;-72
2022/04/03 07:40:03;;;;;;;3.07;1.70;;;9.20;90.00;;;;;;5043104;28;20571;-70
2022/04/03 07:42:31;;;;;;;3.27;1.73;;;9.40;91.20;;;;;;5051174;28;20458;-70
2022/04/03 07:45:05;;;;;;;3.33;2.20;;;9.10;90.10;;;;;;5038819;28;20483;-73
2022/04/03 07:47:34;;;;;;;1.87;1.53;;;8.80;92.30;;;;;;5052956;28;21286;-74
2022/04/03 07:50:12;;;;;;;2.23;1.80;;;8.90;92.80;;;;;;5041177;28;21995;-75
2022/04/03 07:52:42;;;;;;;2.93;2.17;;;9.30;92.90;;;;;;5043182;28;21591;-74
2022/04/03 07:55:13;;;;;;;5.63;2.47;;;9.00;92.10;;;;;;5038025;28;21151;-73
2022/04/03 07:57:45;;;;;;;2.13;1.90;;;9.40;91.30;;;;;;5039062;28;20455;-74
2022/04/03 08:00:18;;;;;;;1.50;1.40;;;9.30;91.00;;;;;;5047612;28;20995;-73
2022/04/03 08:02:47;;;;;;;3.80;2.33;;;8.80;91.10;;;;;;5046604;28;20510;-74
2022/04/03 08:05:19;;;;;;;2.13;1.27;;;8.70;91.00;;;;;;5044143;28;21077;-73
2022/04/03 08:07:50;;;;;;;1.77;1.60;;;9.00;91.00;;;;;;5041576;28;20951;-75
2022/04/03 08:10:18;;;;;;;2.80;1.90;;;9.90;90.90;;;;;;5042287;28;20487;-72
2022/04/03 08:12:51;;;;;;;2.20;1.57;;;10.60;85.70;;;;;;5042893;28;20859;-73
2022/04/03 08:15:30;;;;;;;2.77;1.57;;;10.60;84.80;;;;;;5043643;28;20475;-73
2022/04/03 08:17:57;;;;;;;3.50;1.63;;;10.20;82.10;;;;;;5041946;28;20472;-75
2022/04/03 08:20:28;;;;;;;3.27;1.63;;;10.10;85.40;;;;;;5046873;28;20480;-73
2022/04/03 08:23:01;;;;;;;1.57;1.47;;;10.20;86.00;;;;;;5049156;28;21863;-74
2022/04/03 08:25:32;;;;;;;1.67;1.57;;;10.20;85.40;;;;;;5046960;28;20929;-74
2022/04/03 08:28:04;;;;;;;2.70;1.53;;;9.90;88.30;;;;;;5053593;28;20451;-71
2022/04/03 08:30:36;;;;;;;2.70;2.03;;;8.80;86.80;;;;;;5049816;28;20452;-71
2022/04/03 08:33:08;;;;;;;2.83;1.60;;;7.90;90.30;;;;;;5056949;28;20449;-71
2022/04/03 08:35:40;;;;;;;3.30;2.17;;;7.60;91.10;;;;;;5043689;28;21179;-73
2022/04/03 08:38:10;;;;;;;1.80;1.23;;;7.70;91.10;;;;;;5045843;28;20456;-73
2022/04/03 08:40:39;;;;;;;2.40;1.70;;;7.70;91.10;;;;;;5051356;28;20483;-72
2022/04/03 08:43:13;;;;;;;2.70;1.80;;;7.50;90.50;;;;;;5050055;28;20437;-73
2022/04/03 08:45:40;;;;;;;4.33;2.00;;;7.50;90.40;;;;;;5044026;28;20470;-74
2022/04/03 08:48:09;;;;;;;2.57;1.57;;;7.30;91.00;;;;;;5052753;28;20462;-74
2022/04/03 08:50:41;;;;;;;2.27;1.90;;;7.40;91.60;;;;;;5048213;28;20449;-73
2022/04/03 08:53:14;;;;;;;3.10;2.13;;;7.40;90.00;;;;;;5051657;28;20457;-73
2022/04/03 08:55:43;;;;;;;1.50;1.30;;;7.00;91.10;;;;;;5046076;28;20435;-74
2022/04/03 08:58:11;;;;;;;2.03;1.37;;;7.20;91.80;;;;;;5048092;28;20437;-73
2022/04/03 09:00:38;;;;;;;1.37;1.27;;;7.30;91.70;;;;;;5044179;28;20487;-72
2022/04/03 09:03:14;;;;;;;2.67;1.40;;;7.50;91.70;;;;;;5042247;28;20441;-74
2022/04/03 09:05:45;;;;;;;1.63;1.53;;;7.20;91.40;;;;;;5039439;28;20495;-73
2022/04/03 09:08:19;;;;;;;3.03;1.60;;;6.90;91.10;;;;;;5038074;28;20546;-73
2022/04/03 09:11:05;;;;;;;3.10;1.70;;;6.60;91.70;;;;;;5040930;28;20483;-73
2022/04/03 09:13:40;;;;;;;5.43;1.83;;;6.30;92.40;;;;;;5042434;28;20452;-74
2022/04/03 09:16:10;;;;;;;3.17;2.13;;;6.30;93.00;;;;;;5043702;28;20525;-73
2022/04/03 09:18:51;;;;;;;2.03;1.80;;;6.40;93.50;;;;;;5045085;28;20457;-72
2022/04/03 09:21:20;;;;;;;5.13;1.73;;;6.60;92.80;;;;;;5045984;28;20463;-73
2022/04/03 09:23:58;;;;;;;3.63;2.10;;;6.20;90.90;;;;;;5037717;28;20442;-73
2022/04/03 09:26:25;;;;;;;2.53;1.60;;;6.10;93.20;;;;;;5042000;28;20461;-72
2022/04/03 09:29:09;;;;;;;3.90;1.43;;;6.10;93.10;;;;;;5039851;28;20790;-71
2022/04/03 09:31:41;;;;;;;2.13;1.50;;;6.00;93.50;;;;;;5043929;28;20468;-71
2022/04/03 09:34:17;;;;;;;1.60;1.50;;;5.90;93.00;;;;;;5042519;28;20569;-71
2022/04/03 09:36:55;;;;;;;1.93;1.77;;;5.90;94.00;;;;;;5039342;28;22051;-72
2022/04/03 09:39:26;;;;;;;1.33;1.20;;;6.10;95.00;;;;;;5039786;28;20973;-74
2022/04/03 09:41:59;;;;;;;1.83;1.70;;;6.10;94.90;;;;;;5042753;28;20461;-73
2022/04/03 09:44:31;;;;;;;1.37;1.27;;;6.00;94.80;;;;;;5050291;28;20449;-73
2022/04/03 09:47:14;;;;;;;4.17;1.97;;;6.10;95.30;;;;;;5042715;28;20491;-74
2022/04/03 09:49:44;;;;;;;4.60;1.30;;;6.20;94.90;;;;;;5041361;28;20454;-73
2022/04/03 09:52:11;;;;;;;2.83;1.80;;;6.30;94.10;;;;;;5042407;28;20459;-73
2022/04/03 09:54:47;;;;;;;1.67;1.20;;;6.40;95.00;;;;;;5046081;28;20912;-74
2022/04/03 09:57:20;;;;;;;1.87;1.50;;;6.60;94.20;;;;;;5040066;28;20429;-74
2022/04/03 09:59:58;;;;;;;1.40;1.10;;;6.70;94.90;;;;;;5047785;28;20449;-73
2022/04/03 10:02:32;;;;;;;2.17;1.93;;;6.90;93.60;;;;;;5052167;28;20437;-72
2022/04/03 10:04:59;;;;;;;2.70;2.50;;;6.70;95.00;;;;;;5040547;28;20569;-74
2022/04/03 10:07:33;;;;;;;1.30;1.00;;;6.80;94.50;;;;;;5049730;28;20516;-76
2022/04/03 10:10:04;;;;;;;1.20;1.07;;;6.90;94.20;;;;;;5054910;28;20865;-73
2022/04/03 10:12:32;;;;;;;3.03;1.47;;;6.70;94.90;;;;;;5051720;28;20455;-72
2022/04/03 10:15:09;;;;;;;1.30;1.03;;;6.60;94.30;;;;;;5043675;28;21022;-73
2022/04/03 10:17:36;;;;;;;1.57;1.30;;;6.80;95.80;;;;;;5053547;28;20433;-74
2022/04/03 10:20:03;;;;;;;2.40;1.57;;;7.10;96.20;;;;;;5045887;28;20577;-73
2022/04/03 10:22:34;;;;;;;1.20;0.97;;;7.40;96.00;;;;;;5055682;28;20433;-72
2022/04/03 10:25:15;;;;;;;1.60;1.43;;;7.40;95.40;;;;;;5041804;28;20457;-73
2022/04/03 10:27:46;;;;;;;1.50;1.40;;;7.50;97.80;;;;;;5052236;28;20456;-73
2022/04/03 10:30:20;;;;;;;1.40;1.13;;;7.60;98.80;;;;;;5050561;28;20956;-73
2022/04/03 10:33:00;;;;;;;1.80;1.20;;;7.50;97.40;;;;;;5052226;28;20945;-73
2022/04/03 10:35:30;;;;;;;2.03;1.47;;;7.50;96.40;;;;;;5050251;28;20430;-73
2022/04/03 10:38:27;;;;;;;1.60;1.27;;;8.10;96.30;;;;;;5049922;28;20469;-72
2022/04/03 10:40:59;;;;;;;3.33;1.63;;;9.80;95.30;;;;;;5047974;28;20470;-73
2022/04/03 10:48:43;;;;;;;2.33;1.60;;;13.10;87.40;;;;;;5029976;28;20580;-72
2022/04/03 10:51:30;;;;;;;2.67;1.67;;;13.90;82.70;;;;;;5032443;28;20816;-72
2022/04/03 10:54:08;;;;;;;2.30;2.10;;;13.70;79.70;;;;;;5028061;28;20902;-72
2022/04/03 10:59:11;;;;;;;1.50;0.97;;;15.10;73.10;;;;;;5021746;28;20469;-72
2022/04/03 11:01:38;;;;;;;3.23;1.80;;;15.70;73.50;;;;;;5026164;28;20870;-72
2022/04/03 11:04:11;;;;;;;4.20;1.30;;;15.80;70.60;;;;;;5026940;28;20509;-73
2022/04/03 11:06:38;;;;;;;3.77;1.07;;;15.30;69.60;;;;;;5027305;28;20459;-72
2022/04/03 11:09:10;;;;;;;9.30;2.93;;;15.50;68.10;;;;;;5030525;28;20463;-71
2022/04/03 11:11:43;;;;;;;1.90;1.70;;;14.60;69.40;;;;;;5027267;28;20464;-73
2022/04/03 11:14:11;;;;;;;1.70;1.60;;;14.00;71.50;;;;;;5022345;28;20460;-73
2022/04/03 11:16:56;;;;;;;2.40;1.50;;;14.50;72.70;;;;;;5022538;28;20520;-73
2022/04/03 11:19:44;;;;;;;2.90;1.90;;;14.40;71.50;;;;;;5028099;28;20460;-71
2022/04/03 11:22:15;;;;;;;1.70;1.33;;;15.20;76.20;;;;;;5023005;28;20486;-71
2022/04/03 11:24:42;;;;;;;2.27;1.30;;;16.30;68.60;;;;;;5019871;28;20460;-72
2022/04/03 11:27:09;;;;;;;2.10;1.80;;;16.60;69.30;;;;;;5020556;28;21208;-72
2022/04/03 11:29:37;;;;;;;2.07;1.00;;;16.80;65.50;;;;;;5031164;28;20455;-73
2022/04/03 11:32:06;;;;;;;1.70;1.60;;;15.90;65.80;;;;;;5026825;28;20458;-72
2022/04/03 11:34:33;;;;;;;7.23;1.60;;;13.70;68.10;;;;;;5024193;28;20460;-72
2022/04/03 11:37:04;;;;;;;2.00;1.80;;;13.00;73.80;;;;;;5022578;28;21697;-73
2022/04/03 11:39:32;;;;;;;2.40;1.27;;;13.20;74.40;;;;;;5020142;28;20488;-73
2022/04/03 11:42:03;;;;;;;1.80;1.60;;;14.20;72.00;;;;;;5017050;28;20470;-72
2022/04/03 11:44:30;;;;;;;2.00;1.40;;;14.50;72.50;;;;;;5028771;28;20491;-73
2022/04/03 11:46:57;;;;;;;2.03;1.83;;;14.60;71.70;;;;;;5021360;28;20487;-73
2022/04/03 11:49:28;;;;;;;4.57;1.53;;;15.30;69.60;;;;;;5023227;28;20465;-72
2022/04/03 11:51:56;;;;;;;3.10;1.30;;;15.50;67.70;;;;;;5015017;28;20503;-73
2022/04/03 11:54:25;;;;;;;2.43;1.43;;;15.40;64.70;;;;;;5023865;28;20455;-73
2022/04/03 11:57:00;;;;;;;1.30;1.13;;;15.50;68.10;;;;;;5026150;28;20487;-72
2022/04/03 11:59:27;;;;;;;1.87;1.37;;;15.20;65.20;;;;;;5023430;28;20454;-72
2022/04/03 12:01:54;;;;;;;2.87;2.23;;;14.50;66.10;;;;;;5021946;28;20550;-73
2022/04/03 12:04:23;;;;;;;1.67;1.50;;;14.50;65.10;;;;;;5028135;28;20460;-72
2022/04/03 12:06:51;;;;;;;1.57;1.27;;;13.70;66.30;;;;;;5021714;28;20458;-71
2022/04/03 12:09:21;;;;;;;1.70;1.30;;;12.90;66.10;;;;;;5027285;28;21188;-72
2022/04/03 12:11:51;;;;;;;1.53;1.20;;;12.70;67.70;;;;;;5026797;28;20460;-72
2022/04/03 12:14:30;;;;;;;1.97;1.27;;;13.00;68.40;;;;;;5024819;28;20460;-72
2022/04/03 12:17:00;;;;;;;2.83;1.33;;;14.40;69.20;;;;;;5024714;28;21124;-72
2022/04/03 12:19:27;;;;;;;1.80;1.33;;;14.60;63.60;;;;;;5017476;28;20518;-72
2022/04/03 12:21:56;;;;;;;2.03;1.47;;;14.80;64.70;;;;;;5022936;28;20537;-72
2022/04/03 12:24:24;;;;;;;2.67;1.73;;;15.40;64.40;;;;;;5024916;28;20463;-72
2022/04/03 12:26:54;;;;;;;5.73;2.13;;;16.10;63.80;;;;;;5021753;28;20487;-71
2022/04/03 12:29:22;;;;;;;3.10;2.80;;;15.90;64.90;;;;;;5022993;28;20472;-71
2022/04/03 12:32:00;;;;;;;1.67;1.50;;;16.10;62.30;;;;;;5018796;28;20467;-73
2022/04/03 12:34:28;;;;;;;3.83;1.40;;;15.60;62.60;;;;;;5024317;28;20458;-74
2022/04/03 12:36:56;;;;;;;2.10;1.60;;;14.50;61.30;;;;;;5017021;28;20491;-69
2022/04/03 12:39:41;;;;;;;8.83;1.73;;;13.30;62.90;;;;;;5020890;28;20545;-72
2022/04/03 12:42:21;;;;;;;1.53;1.40;;;12.70;67.50;;;;;;5027183;28;20790;-71
2022/04/03 12:44:53;;;;;;;2.90;1.30;;;12.00;67.80;;;;;;5014464;28;20459;-71
2022/04/03 12:47:22;;;;;;;2.20;1.40;;;11.20;72.40;;;;;;5020502;28;20512;-71
2022/04/03 12:49:51;;;;;;;1.90;1.50;;;10.50;76.20;;;;;;5032159;28;20458;-71
2022/04/03 12:52:36;;;;;;;2.13;1.93;;;9.80;86.50;;;;;;5021145;28;20506;-73
2022/04/03 12:55:03;;;;;;;3.20;1.80;;;9.50;93.90;;;;;;5025381;28;20952;-73
2022/04/03 13:00:17;;;;;;;1.73;1.33;;;9.10;98.50;;;;;;5021478;28;20540;-71
2022/04/03 13:02:45;;;;;;;3.13;1.90;;;9.00;99.90;;;;;;5026736;28;20452;-71
2022/04/03 13:05:16;;;;;;;5.37;3.20;;;9.00;99.90;;;;;;5032716;28;20441;-71
2022/04/03 13:07:43;;;;;;;1.40;1.10;;;9.20;99.90;;;;;;5027916;28;20442;-71
2022/04/03 13:10:17;;;;;;;4.70;1.53;;;9.50;99.70;;;;;;5021214;28;20670;-72
2022/04/03 13:12:48;;;;;;;1.50;1.20;;;9.50;99.90;;;;;;5025705;28;20515;-73
2022/04/03 13:15:15;;;;;;;1.50;1.07;;;10.20;99.50;;;;;;5024768;28;20545;-73
2022/04/03 13:17:43;;;;;;;2.03;1.43;;;10.20;98.40;;;;;;5025185;28;20480;-73
2022/04/03 13:20:10;;;;;;;1.50;1.27;;;10.20;97.40;;;;;;5017273;28;20615;-72
2022/04/03 13:22:37;;;;;;;2.60;1.40;;;10.20;97.30;;;;;;5023675;28;20471;-73